sensor_id;sensor_type;location;lat;lon;timestamp;P1;durP1;ratioP1;P2;durP2;ratioP2
37753;SDS011;23596;52.520;13.464;2022-10-31T00:01:51;56.90;;;28.35;;
37753;SDS011;23596;52.520;13.464;2022-10-31T00:04:17;60.10;;;25.97;;
37753;SDS011;23596;52.520;13.464;2022-10-31T00:06:42;64.63;;;27.02;;
37753;SDS011;23596;52.520;13.464;2022-10-31T00:09:08;56.63;;;25.80;;
37753;SDS011;23596;52.520;13.464;2022-10-31T00:11:35;60.53;;;27.90;;
37753;SDS011;23596;52.520;13.464;2022-10-31T00:14:00;65.33;;;30.20;;
37753;SDS011;23596;52.520;13.464;2022-10-31T00:16:26;60.95;;;27.00;;
37753;SDS011;23596;52.520;13.464;2022-10-31T00:18:54;55.25;;;27.90;;
37753;SDS011;23596;52.520;13.464;2022-10-31T00:21:21;55.35;;;26.77;;
37753;SDS011;23596;52.520;13.464;2022-10-31T00:23:47;67.90;;;27.00;;
37753;SDS011;23596;52.520;13.464;2022-10-31T00:26:13;57.00;;;27.50;;
37753;SDS011;23596;52.520;13.464;2022-10-31T00:28:39;58.60;;;27.27;;
37753;SDS011;23596;52.520;13.464;2022-10-31T00:31:06;69.90;;;27.77;;
37753;SDS011;23596;52.520;13.464;2022-10-31T00:33:33;65.78;;;26.13;;
37753;SDS011;23596;52.520;13.464;2022-10-31T00:36:01;63.17;;;25.40;;
37753;SDS011;23596;52.520;13.464;2022-10-31T00:38:27;60.80;;;26.90;;
37753;SDS011;23596;52.520;13.464;2022-10-31T00:40:53;59.03;;;26.87;;
37753;SDS011;23596;52.520;13.464;2022-10-31T00:43:19;53.13;;;25.43;;
37753;SDS011;23596;52.520;13.464;2022-10-31T00:45:44;61.37;;;25.23;;
37753;SDS011;23596;52.520;13.464;2022-10-31T00:48:10;51.23;;;26.50;;
37753;SDS011;23596;52.520;13.464;2022-10-31T00:50:35;61.17;;;26.57;;
37753;SDS011;23596;52.520;13.464;2022-10-31T00:53:02;63.45;;;26.90;;
37753;SDS011;23596;52.520;13.464;2022-10-31T00:55:27;49.23;;;26.03;;
37753;SDS011;23596;52.520;13.464;2022-10-31T00:57:53;59.67;;;26.67;;
37753;SDS011;23596;52.520;13.464;2022-10-31T01:00:18;48.40;;;25.50;;
37753;SDS011;23596;52.520;13.464;2022-10-31T01:02:44;61.87;;;24.73;;
37753;SDS011;23596;52.520;13.464;2022-10-31T01:05:10;62.63;;;27.47;;
37753;SDS011;23596;52.520;13.464;2022-10-31T01:07:36;63.03;;;27.10;;
37753;SDS011;23596;52.520;13.464;2022-10-31T01:10:03;57.63;;;26.90;;
37753;SDS011;23596;52.520;13.464;2022-10-31T01:12:29;74.40;;;26.90;;
37753;SDS011;23596;52.520;13.464;2022-10-31T01:14:54;63.70;;;27.73;;
37753;SDS011;23596;52.520;13.464;2022-10-31T01:17:20;64.47;;;26.60;;
37753;SDS011;23596;52.520;13.464;2022-10-31T01:19:45;57.87;;;27.17;;
37753;SDS011;23596;52.520;13.464;2022-10-31T01:22:11;70.00;;;27.02;;
37753;SDS011;23596;52.520;13.464;2022-10-31T01:24:36;64.93;;;26.33;;
37753;SDS011;23596;52.520;13.464;2022-10-31T01:27:02;58.60;;;26.63;;
37753;SDS011;23596;52.520;13.464;2022-10-31T01:29:27;54.03;;;26.27;;
37753;SDS011;23596;52.520;13.464;2022-10-31T01:31:53;57.47;;;26.70;;
37753;SDS011;23596;52.520;13.464;2022-10-31T01:34:18;67.10;;;26.80;;
37753;SDS011;23596;52.520;13.464;2022-10-31T01:36:44;58.08;;;26.60;;
37753;SDS011;23596;52.520;13.464;2022-10-31T01:39:16;56.40;;;26.40;;
37753;SDS011;23596;52.520;13.464;2022-10-31T01:41:49;52.05;;;24.73;;
37753;SDS011;23596;52.520;13.464;2022-10-31T01:49:17;51.63;;;25.60;;
37753;SDS011;23596;52.520;13.464;2022-10-31T01:52:23;53.10;;;24.25;;
37753;SDS011;23596;52.520;13.464;2022-10-31T01:55:06;51.42;;;23.60;;
37753;SDS011;23596;52.520;13.464;2022-10-31T01:57:45;54.28;;;22.83;;
37753;SDS011;23596;52.520;13.464;2022-10-31T02:00:13;51.78;;;23.70;;
37753;SDS011;23596;52.520;13.464;2022-10-31T02:02:40;53.75;;;23.92;;
37753;SDS011;23596;52.520;13.464;2022-10-31T02:05:08;51.20;;;23.08;;
37753;SDS011;23596;52.520;13.464;2022-10-31T02:07:59;52.78;;;23.30;;
37753;SDS011;23596;52.520;13.464;2022-10-31T02:10:35;60.47;;;23.38;;
37753;SDS011;23596;52.520;13.464;2022-10-31T02:15:29;52.42;;;23.63;;
37753;SDS011;23596;52.520;13.464;2022-10-31T02:17:56;57.35;;;22.80;;
37753;SDS011;23596;52.520;13.464;2022-10-31T02:20:22;45.87;;;22.07;;
37753;SDS011;23596;52.520;13.464;2022-10-31T02:36:41;63.03;;;21.65;;
37753;SDS011;23596;52.520;13.464;2022-10-31T02:39:13;58.67;;;23.50;;
37753;SDS011;23596;52.520;13.464;2022-10-31T02:41:52;59.42;;;22.65;;
37753;SDS011;23596;52.520;13.464;2022-10-31T02:47:23;57.35;;;22.27;;
37753;SDS011;23596;52.520;13.464;2022-10-31T02:50:06;43.63;;;21.63;;
37753;SDS011;23596;52.520;13.464;2022-10-31T02:52:37;52.72;;;23.05;;
37753;SDS011;23596;52.520;13.464;2022-10-31T02:55:10;46.97;;;21.37;;
37753;SDS011;23596;52.520;13.464;2022-10-31T02:57:37;48.88;;;21.95;;
37753;SDS011;23596;52.520;13.464;2022-10-31T03:00:07;52.63;;;20.98;;
37753;SDS011;23596;52.520;13.464;2022-10-31T03:11:02;52.08;;;21.08;;
37753;SDS011;23596;52.520;13.464;2022-10-31T03:13:32;58.92;;;21.58;;
37753;SDS011;23596;52.520;13.464;2022-10-31T03:18:57;45.92;;;22.13;;
37753;SDS011;23596;52.520;13.464;2022-10-31T03:21:30;50.05;;;22.50;;
37753;SDS011;23596;52.520;13.464;2022-10-31T03:24:00;54.63;;;22.60;;
37753;SDS011;23596;52.520;13.464;2022-10-31T03:26:27;50.38;;;21.27;;
37753;SDS011;23596;52.520;13.464;2022-10-31T03:28:54;51.50;;;21.50;;
37753;SDS011;23596;52.520;13.464;2022-10-31T03:31:25;56.40;;;21.58;;
37753;SDS011;23596;52.520;13.464;2022-10-31T03:33:55;58.67;;;22.20;;
37753;SDS011;23596;52.520;13.464;2022-10-31T03:36:23;49.65;;;20.35;;
37753;SDS011;23596;52.520;13.464;2022-10-31T03:38:51;46.85;;;20.33;;
37753;SDS011;23596;52.520;13.464;2022-10-31T03:41:19;51.72;;;20.48;;
37753;SDS011;23596;52.520;13.464;2022-10-31T03:43:51;43.33;;;18.17;;
37753;SDS011;23596;52.520;13.464;2022-10-31T03:46:20;51.67;;;18.95;;
37753;SDS011;23596;52.520;13.464;2022-10-31T03:48:46;48.50;;;18.33;;
37753;SDS011;23596;52.520;13.464;2022-10-31T03:54:25;49.75;;;19.17;;
37753;SDS011;23596;52.520;13.464;2022-10-31T04:00:05;50.33;;;18.80;;
37753;SDS011;23596;52.520;13.464;2022-10-31T04:02:37;42.88;;;17.60;;
37753;SDS011;23596;52.520;13.464;2022-10-31T04:05:06;41.42;;;17.83;;
37753;SDS011;23596;52.520;13.464;2022-10-31T04:07:34;45.92;;;18.15;;
37753;SDS011;23596;52.520;13.464;2022-10-31T04:10:06;40.35;;;17.40;;
37753;SDS011;23596;52.520;13.464;2022-10-31T04:12:35;39.15;;;17.60;;
37753;SDS011;23596;52.520;13.464;2022-10-31T04:15:04;40.67;;;16.80;;
37753;SDS011;23596;52.520;13.464;2022-10-31T04:17:33;38.40;;;17.33;;
37753;SDS011;23596;52.520;13.464;2022-10-31T04:20:01;36.85;;;15.98;;
37753;SDS011;23596;52.520;13.464;2022-10-31T04:22:27;45.97;;;17.67;;
37753;SDS011;23596;52.520;13.464;2022-10-31T04:24:53;41.23;;;17.77;;
37753;SDS011;23596;52.520;13.464;2022-10-31T04:27:18;46.45;;;17.77;;
37753;SDS011;23596;52.520;13.464;2022-10-31T04:29:44;37.60;;;16.73;;
37753;SDS011;23596;52.520;13.464;2022-10-31T04:32:09;35.70;;;16.67;;
37753;SDS011;23596;52.520;13.464;2022-10-31T04:34:35;41.80;;;18.03;;
37753;SDS011;23596;52.520;13.464;2022-10-31T04:37:00;38.40;;;18.87;;
37753;SDS011;23596;52.520;13.464;2022-10-31T04:39:26;42.07;;;16.73;;
37753;SDS011;23596;52.520;13.464;2022-10-31T04:41:51;38.42;;;16.35;;
37753;SDS011;23596;52.520;13.464;2022-10-31T04:44:17;38.03;;;16.73;;
37753;SDS011;23596;52.520;13.464;2022-10-31T04:46:42;42.35;;;17.80;;
37753;SDS011;23596;52.520;13.464;2022-10-31T04:49:08;53.23;;;17.67;;
37753;SDS011;23596;52.520;13.464;2022-10-31T04:51:33;47.57;;;18.87;;
37753;SDS011;23596;52.520;13.464;2022-10-31T04:53:59;44.92;;;19.58;;
37753;SDS011;23596;52.520;13.464;2022-10-31T04:56:24;55.80;;;20.27;;
37753;SDS011;23596;52.520;13.464;2022-10-31T04:58:50;39.77;;;19.00;;
37753;SDS011;23596;52.520;13.464;2022-10-31T05:01:16;46.10;;;19.92;;
37753;SDS011;23596;52.520;13.464;2022-10-31T05:03:41;46.83;;;19.65;;
37753;SDS011;23596;52.520;13.464;2022-10-31T05:06:07;48.00;;;20.27;;
37753;SDS011;23596;52.520;13.464;2022-10-31T05:08:33;41.37;;;20.03;;
37753;SDS011;23596;52.520;13.464;2022-10-31T05:11:02;38.33;;;20.17;;
37753;SDS011;23596;52.520;13.464;2022-10-31T05:13:28;62.42;;;20.88;;
37753;SDS011;23596;52.520;13.464;2022-10-31T05:15:54;40.17;;;19.33;;
37753;SDS011;23596;52.520;13.464;2022-10-31T05:18:20;44.92;;;19.27;;
37753;SDS011;23596;52.520;13.464;2022-10-31T05:20:45;51.30;;;19.33;;
37753;SDS011;23596;52.520;13.464;2022-10-31T05:23:11;51.63;;;19.43;;
37753;SDS011;23596;52.520;13.464;2022-10-31T05:25:36;62.53;;;20.73;;
37753;SDS011;23596;52.520;13.464;2022-10-31T05:28:02;41.80;;;19.60;;
37753;SDS011;23596;52.520;13.464;2022-10-31T05:30:29;55.72;;;20.52;;
37753;SDS011;23596;52.520;13.464;2022-10-31T05:32:55;50.85;;;20.17;;
37753;SDS011;23596;52.520;13.464;2022-10-31T05:35:28;50.37;;;20.37;;
37753;SDS011;23596;52.520;13.464;2022-10-31T05:37:55;51.10;;;20.45;;
37753;SDS011;23596;52.520;13.464;2022-10-31T05:42:50;46.72;;;20.42;;
37753;SDS011;23596;52.520;13.464;2022-10-31T05:45:17;57.95;;;21.75;;
37753;SDS011;23596;52.520;13.464;2022-10-31T05:47:53;50.63;;;22.50;;
37753;SDS011;23596;52.520;13.464;2022-10-31T05:50:20;54.95;;;21.85;;
37753;SDS011;23596;52.520;13.464;2022-10-31T05:52:46;49.38;;;21.67;;
37753;SDS011;23596;52.520;13.464;2022-10-31T05:55:12;47.72;;;20.02;;
37753;SDS011;23596;52.520;13.464;2022-10-31T05:57:38;55.33;;;21.60;;
37753;SDS011;23596;52.520;13.464;2022-10-31T06:00:04;61.40;;;22.03;;
37753;SDS011;23596;52.520;13.464;2022-10-31T06:02:30;51.85;;;21.25;;
37753;SDS011;23596;52.520;13.464;2022-10-31T06:04:59;50.78;;;21.88;;
37753;SDS011;23596;52.520;13.464;2022-10-31T06:07:25;53.57;;;21.03;;
37753;SDS011;23596;52.520;13.464;2022-10-31T06:09:50;52.33;;;23.35;;
37753;SDS011;23596;52.520;13.464;2022-10-31T06:12:16;56.70;;;22.65;;
37753;SDS011;23596;52.520;13.464;2022-10-31T06:14:42;53.58;;;22.00;;
37753;SDS011;23596;52.520;13.464;2022-10-31T06:17:07;50.80;;;21.47;;
37753;SDS011;23596;52.520;13.464;2022-10-31T06:19:32;56.95;;;23.05;;
37753;SDS011;23596;52.520;13.464;2022-10-31T06:21:58;53.53;;;21.33;;
37753;SDS011;23596;52.520;13.464;2022-10-31T06:24:23;41.60;;;21.35;;
37753;SDS011;23596;52.520;13.464;2022-10-31T06:26:49;59.60;;;21.03;;
37753;SDS011;23596;52.520;13.464;2022-10-31T06:29:15;57.00;;;23.40;;
37753;SDS011;23596;52.520;13.464;2022-10-31T06:31:40;54.13;;;22.57;;
37753;SDS011;23596;52.520;13.464;2022-10-31T06:34:06;59.20;;;22.23;;
37753;SDS011;23596;52.520;13.464;2022-10-31T06:36:31;46.10;;;21.50;;
37753;SDS011;23596;52.520;13.464;2022-10-31T06:38:57;50.40;;;22.00;;
37753;SDS011;23596;52.520;13.464;2022-10-31T06:41:22;57.50;;;23.00;;
37753;SDS011;23596;52.520;13.464;2022-10-31T06:43:48;46.63;;;20.45;;
37753;SDS011;23596;52.520;13.464;2022-10-31T06:46:13;52.27;;;20.77;;
37753;SDS011;23596;52.520;13.464;2022-10-31T06:48:40;53.60;;;20.92;;
37753;SDS011;23596;52.520;13.464;2022-10-31T06:51:06;47.70;;;20.33;;
37753;SDS011;23596;52.520;13.464;2022-10-31T06:53:32;65.20;;;21.17;;
37753;SDS011;23596;52.520;13.464;2022-10-31T06:55:57;57.27;;;20.50;;
37753;SDS011;23596;52.520;13.464;2022-10-31T06:58:23;55.40;;;20.38;;
37753;SDS011;23596;52.520;13.464;2022-10-31T07:00:49;57.97;;;20.53;;
37753;SDS011;23596;52.520;13.464;2022-10-31T07:03:14;55.80;;;23.15;;
37753;SDS011;23596;52.520;13.464;2022-10-31T07:05:41;50.35;;;20.20;;
37753;SDS011;23596;52.520;13.464;2022-10-31T07:08:08;61.00;;;22.05;;
37753;SDS011;23596;52.520;13.464;2022-10-31T07:10:35;53.05;;;20.23;;
37753;SDS011;23596;52.520;13.464;2022-10-31T07:13:02;48.50;;;19.77;;
37753;SDS011;23596;52.520;13.464;2022-10-31T07:15:30;61.45;;;23.15;;
37753;SDS011;23596;52.520;13.464;2022-10-31T07:17:59;49.35;;;19.73;;
37753;SDS011;23596;52.520;13.464;2022-10-31T07:20:26;57.28;;;21.33;;
37753;SDS011;23596;52.520;13.464;2022-10-31T07:22:52;55.67;;;21.53;;
37753;SDS011;23596;52.520;13.464;2022-10-31T07:25:17;62.60;;;21.67;;
37753;SDS011;23596;52.520;13.464;2022-10-31T07:27:43;60.15;;;22.45;;
37753;SDS011;23596;52.520;13.464;2022-10-31T07:30:09;51.20;;;21.07;;
37753;SDS011;23596;52.520;13.464;2022-10-31T07:32:49;61.00;;;22.23;;
37753;SDS011;23596;52.520;13.464;2022-10-31T07:35:16;60.00;;;21.13;;
37753;SDS011;23596;52.520;13.464;2022-10-31T07:37:47;65.47;;;22.95;;
37753;SDS011;23596;52.520;13.464;2022-10-31T07:40:13;63.30;;;23.98;;
37753;SDS011;23596;52.520;13.464;2022-10-31T07:42:39;62.65;;;21.52;;
37753;SDS011;23596;52.520;13.464;2022-10-31T07:45:07;44.45;;;20.05;;
37753;SDS011;23596;52.520;13.464;2022-10-31T07:47:40;60.30;;;21.67;;
37753;SDS011;23596;52.520;13.464;2022-10-31T07:50:07;61.60;;;23.27;;
37753;SDS011;23596;52.520;13.464;2022-10-31T07:52:34;61.08;;;23.15;;
37753;SDS011;23596;52.520;13.464;2022-10-31T07:55:00;56.47;;;21.97;;
37753;SDS011;23596;52.520;13.464;2022-10-31T07:57:25;57.93;;;22.23;;
37753;SDS011;23596;52.520;13.464;2022-10-31T07:59:51;49.03;;;22.10;;
37753;SDS011;23596;52.520;13.464;2022-10-31T08:02:17;55.83;;;22.67;;
37753;SDS011;23596;52.520;13.464;2022-10-31T08:04:42;54.88;;;23.55;;
37753;SDS011;23596;52.520;13.464;2022-10-31T08:07:08;58.77;;;22.50;;
37753;SDS011;23596;52.520;13.464;2022-10-31T08:09:33;54.30;;;21.90;;
37753;SDS011;23596;52.520;13.464;2022-10-31T08:11:59;58.70;;;23.93;;
37753;SDS011;23596;52.520;13.464;2022-10-31T08:14:24;57.10;;;22.37;;
37753;SDS011;23596;52.520;13.464;2022-10-31T08:16:50;54.00;;;21.88;;
37753;SDS011;23596;52.520;13.464;2022-10-31T08:19:17;50.35;;;21.58;;
37753;SDS011;23596;52.520;13.464;2022-10-31T08:21:43;55.87;;;21.63;;
37753;SDS011;23596;52.520;13.464;2022-10-31T08:24:08;59.05;;;23.23;;
37753;SDS011;23596;52.520;13.464;2022-10-31T08:26:34;51.63;;;22.93;;
37753;SDS011;23596;52.520;13.464;2022-10-31T08:28:59;68.97;;;24.33;;
37753;SDS011;23596;52.520;13.464;2022-10-31T08:31:26;47.00;;;21.13;;
37753;SDS011;23596;52.520;13.464;2022-10-31T08:36:18;70.05;;;24.98;;
37753;SDS011;23596;52.520;13.464;2022-10-31T08:38:44;64.13;;;23.20;;
37753;SDS011;23596;52.520;13.464;2022-10-31T08:41:11;68.00;;;24.40;;
37753;SDS011;23596;52.520;13.464;2022-10-31T08:43:37;55.93;;;24.20;;
37753;SDS011;23596;52.520;13.464;2022-10-31T08:46:02;61.95;;;25.20;;
37753;SDS011;23596;52.520;13.464;2022-10-31T08:48:28;53.60;;;24.80;;
37753;SDS011;23596;52.520;13.464;2022-10-31T08:50:55;54.10;;;24.90;;
37753;SDS011;23596;52.520;13.464;2022-10-31T08:53:22;57.28;;;24.08;;
37753;SDS011;23596;52.520;13.464;2022-10-31T08:55:48;64.00;;;25.73;;
37753;SDS011;23596;52.520;13.464;2022-10-31T08:58:15;56.13;;;27.48;;
37753;SDS011;23596;52.520;13.464;2022-10-31T09:00:42;61.72;;;26.05;;
37753;SDS011;23596;52.520;13.464;2022-10-31T09:03:10;70.43;;;28.10;;
37753;SDS011;23596;52.520;13.464;2022-10-31T09:05:41;63.08;;;26.88;;
37753;SDS011;23596;52.520;13.464;2022-10-31T09:08:07;63.33;;;26.40;;
37753;SDS011;23596;52.520;13.464;2022-10-31T09:10:33;64.43;;;26.73;;
37753;SDS011;23596;52.520;13.464;2022-10-31T09:13:02;69.07;;;26.80;;
37753;SDS011;23596;52.520;13.464;2022-10-31T09:15:35;61.10;;;26.83;;
37753;SDS011;23596;52.520;13.464;2022-10-31T09:18:06;60.08;;;28.70;;
37753;SDS011;23596;52.520;13.464;2022-10-31T09:20:33;67.95;;;27.88;;
37753;SDS011;23596;52.520;13.464;2022-10-31T09:23:01;64.78;;;25.70;;
37753;SDS011;23596;52.520;13.464;2022-10-31T09:25:32;68.15;;;27.90;;
37753;SDS011;23596;52.520;13.464;2022-10-31T09:27:58;64.82;;;27.80;;
37753;SDS011;23596;52.520;13.464;2022-10-31T09:30:25;59.33;;;26.95;;
37753;SDS011;23596;52.520;13.464;2022-10-31T09:32:55;64.95;;;28.02;;
37753;SDS011;23596;52.520;13.464;2022-10-31T09:35:21;60.22;;;26.80;;
37753;SDS011;23596;52.520;13.464;2022-10-31T09:37:53;70.93;;;27.37;;
37753;SDS011;23596;52.520;13.464;2022-10-31T09:40:19;71.28;;;29.23;;
37753;SDS011;23596;52.520;13.464;2022-10-31T09:42:51;62.90;;;27.10;;
37753;SDS011;23596;52.520;13.464;2022-10-31T09:45:28;62.72;;;25.75;;
37753;SDS011;23596;52.520;13.464;2022-10-31T09:51:24;65.82;;;28.00;;
37753;SDS011;23596;52.520;13.464;2022-10-31T09:53:49;66.55;;;27.40;;
37753;SDS011;23596;52.520;13.464;2022-10-31T09:56:18;63.85;;;28.23;;
37753;SDS011;23596;52.520;13.464;2022-10-31T09:58:47;70.88;;;27.73;;
37753;SDS011;23596;52.520;13.464;2022-10-31T10:04:01;77.45;;;30.92;;
37753;SDS011;23596;52.520;13.464;2022-10-31T10:06:49;73.72;;;31.02;;
37753;SDS011;23596;52.520;13.464;2022-10-31T10:09:16;64.00;;;30.38;;
37753;SDS011;23596;52.520;13.464;2022-10-31T10:14:32;70.95;;;30.80;;
37753;SDS011;23596;52.520;13.464;2022-10-31T10:19:54;70.30;;;32.58;;
37753;SDS011;23596;52.520;13.464;2022-10-31T10:22:27;87.07;;;35.72;;
37753;SDS011;23596;52.520;13.464;2022-10-31T10:37:50;68.95;;;33.92;;
37753;SDS011;23596;52.520;13.464;2022-10-31T10:40:22;90.05;;;36.95;;
37753;SDS011;23596;52.520;13.464;2022-10-31T10:48:55;74.13;;;33.90;;
37753;SDS011;23596;52.520;13.464;2022-10-31T10:57:21;74.97;;;33.95;;
37753;SDS011;23596;52.520;13.464;2022-10-31T11:00:13;79.78;;;34.00;;
37753;SDS011;23596;52.520;13.464;2022-10-31T11:02:51;67.30;;;31.65;;
37753;SDS011;23596;52.520;13.464;2022-10-31T11:08:33;63.53;;;28.02;;
37753;SDS011;23596;52.520;13.464;2022-10-31T11:11:01;86.80;;;35.20;;
37753;SDS011;23596;52.520;13.464;2022-10-31T11:13:28;83.43;;;33.67;;
37753;SDS011;23596;52.520;13.464;2022-10-31T11:18:25;75.97;;;31.60;;
37753;SDS011;23596;52.520;13.464;2022-10-31T11:20:53;58.92;;;29.95;;
37753;SDS011;23596;52.520;13.464;2022-10-31T11:23:22;75.68;;;31.52;;
37753;SDS011;23596;52.520;13.464;2022-10-31T11:25:54;79.30;;;32.38;;
37753;SDS011;23596;52.520;13.464;2022-10-31T11:28:21;69.72;;;30.92;;
37753;SDS011;23596;52.520;13.464;2022-10-31T11:30:48;63.53;;;30.73;;
37753;SDS011;23596;52.520;13.464;2022-10-31T11:33:39;83.47;;;35.28;;
37753;SDS011;23596;52.520;13.464;2022-10-31T11:36:21;80.32;;;31.88;;
37753;SDS011;23596;52.520;13.464;2022-10-31T11:38:52;68.25;;;31.98;;
37753;SDS011;23596;52.520;13.464;2022-10-31T11:41:25;69.22;;;32.30;;
37753;SDS011;23596;52.520;13.464;2022-10-31T11:43:58;72.50;;;33.35;;
37753;SDS011;23596;52.520;13.464;2022-10-31T11:46:34;74.22;;;32.03;;
37753;SDS011;23596;52.520;13.464;2022-10-31T11:49:03;76.30;;;34.97;;
37753;SDS011;23596;52.520;13.464;2022-10-31T11:51:36;63.33;;;29.48;;
37753;SDS011;23596;52.520;13.464;2022-10-31T11:54:02;73.70;;;33.75;;
37753;SDS011;23596;52.520;13.464;2022-10-31T11:56:38;81.57;;;32.45;;
37753;SDS011;23596;52.520;13.464;2022-10-31T11:59:12;84.27;;;34.23;;
37753;SDS011;23596;52.520;13.464;2022-10-31T12:02:00;75.78;;;33.00;;
37753;SDS011;23596;52.520;13.464;2022-10-31T12:04:35;75.75;;;32.60;;
37753;SDS011;23596;52.520;13.464;2022-10-31T12:07:05;77.93;;;34.72;;
37753;SDS011;23596;52.520;13.464;2022-10-31T12:09:33;72.20;;;31.80;;
37753;SDS011;23596;52.520;13.464;2022-10-31T12:21:03;74.65;;;31.52;;
37753;SDS011;23596;52.520;13.464;2022-10-31T12:41:58;65.53;;;26.83;;
37753;SDS011;23596;52.520;13.464;2022-10-31T12:44:52;73.10;;;29.85;;
37753;SDS011;23596;52.520;13.464;2022-10-31T12:47:40;75.95;;;30.17;;
37753;SDS011;23596;52.520;13.464;2022-10-31T13:06:18;53.28;;;24.60;;
37753;SDS011;23596;52.520;13.464;2022-10-31T13:09:29;60.72;;;30.13;;
37753;SDS011;23596;52.520;13.464;2022-10-31T13:11:42;67.15;;;29.20;;
37753;SDS011;23596;52.520;13.464;2022-10-31T13:14:12;61.75;;;28.50;;
37753;SDS011;23596;52.520;13.464;2022-10-31T13:16:58;78.32;;;32.63;;
37753;SDS011;23596;52.520;13.464;2022-10-31T13:19:27;63.60;;;30.23;;
37753;SDS011;23596;52.520;13.464;2022-10-31T13:22:10;78.53;;;30.40;;
37753;SDS011;23596;52.520;13.464;2022-10-31T13:24:47;68.70;;;29.67;;
37753;SDS011;23596;52.520;13.464;2022-10-31T13:27:15;72.78;;;29.63;;
37753;SDS011;23596;52.520;13.464;2022-10-31T13:29:50;65.88;;;30.83;;
37753;SDS011;23596;52.520;13.464;2022-10-31T13:32:35;73.82;;;30.10;;
37753;SDS011;23596;52.520;13.464;2022-10-31T13:35:07;71.35;;;31.77;;
37753;SDS011;23596;52.520;13.464;2022-10-31T13:37:41;66.25;;;30.08;;
37753;SDS011;23596;52.520;13.464;2022-10-31T13:43:21;55.10;;;27.05;;
37753;SDS011;23596;52.520;13.464;2022-10-31T13:45:56;60.17;;;28.45;;
37753;SDS011;23596;52.520;13.464;2022-10-31T13:50:59;62.70;;;26.40;;
37753;SDS011;23596;52.520;13.464;2022-10-31T13:58:38;69.82;;;31.02;;
37753;SDS011;23596;52.520;13.464;2022-10-31T14:01:19;70.28;;;32.15;;
37753;SDS011;23596;52.520;13.464;2022-10-31T14:03:47;65.75;;;30.08;;
37753;SDS011;23596;52.520;13.464;2022-10-31T14:09:20;79.93;;;31.73;;
37753;SDS011;23596;52.520;13.464;2022-10-31T14:11:49;67.25;;;28.08;;
37753;SDS011;23596;52.520;13.464;2022-10-31T14:14:15;68.32;;;27.80;;
37753;SDS011;23596;52.520;13.464;2022-10-31T14:16:43;60.22;;;26.55;;
37753;SDS011;23596;52.520;13.464;2022-10-31T14:19:16;72.25;;;30.35;;
37753;SDS011;23596;52.520;13.464;2022-10-31T14:21:44;64.65;;;28.13;;
37753;SDS011;23596;52.520;13.464;2022-10-31T14:26:59;63.60;;;28.70;;
37753;SDS011;23596;52.520;13.464;2022-10-31T14:29:30;66.38;;;28.85;;
37753;SDS011;23596;52.520;13.464;2022-10-31T14:34:53;59.20;;;26.73;;
37753;SDS011;23596;52.520;13.464;2022-10-31T14:51:18;75.75;;;29.50;;
37753;SDS011;23596;52.520;13.464;2022-10-31T14:53:47;76.65;;;32.55;;
37753;SDS011;23596;52.520;13.464;2022-10-31T14:56:46;79.47;;;37.08;;
37753;SDS011;23596;52.520;13.464;2022-10-31T14:59:12;88.03;;;38.33;;
37753;SDS011;23596;52.520;13.464;2022-10-31T15:01:41;83.82;;;37.13;;
37753;SDS011;23596;52.520;13.464;2022-10-31T15:04:21;89.53;;;40.30;;
37753;SDS011;23596;52.520;13.464;2022-10-31T15:07:05;85.68;;;40.13;;
37753;SDS011;23596;52.520;13.464;2022-10-31T15:09:43;93.47;;;40.47;;
37753;SDS011;23596;52.520;13.464;2022-10-31T15:12:22;90.85;;;37.92;;
37753;SDS011;23596;52.520;13.464;2022-10-31T15:14:49;92.55;;;39.80;;
37753;SDS011;23596;52.520;13.464;2022-10-31T15:17:16;89.03;;;40.83;;
37753;SDS011;23596;52.520;13.464;2022-10-31T15:19:42;85.83;;;39.47;;
37753;SDS011;23596;52.520;13.464;2022-10-31T15:22:14;84.07;;;38.72;;
37753;SDS011;23596;52.520;13.464;2022-10-31T15:24:41;86.50;;;40.35;;
37753;SDS011;23596;52.520;13.464;2022-10-31T15:27:16;83.73;;;40.17;;
37753;SDS011;23596;52.520;13.464;2022-10-31T15:29:55;97.28;;;40.80;;
37753;SDS011;23596;52.520;13.464;2022-10-31T15:32:25;95.25;;;40.92;;
37753;SDS011;23596;52.520;13.464;2022-10-31T15:34:52;96.85;;;40.45;;
37753;SDS011;23596;52.520;13.464;2022-10-31T15:39:47;91.72;;;43.05;;
37753;SDS011;23596;52.520;13.464;2022-10-31T15:42:18;95.28;;;42.80;;
37753;SDS011;23596;52.520;13.464;2022-10-31T15:44:45;97.47;;;44.72;;
37753;SDS011;23596;52.520;13.464;2022-10-31T15:47:18;95.75;;;44.38;;
37753;SDS011;23596;52.520;13.464;2022-10-31T15:49:48;104.75;;;44.03;;
37753;SDS011;23596;52.520;13.464;2022-10-31T15:52:17;98.53;;;43.10;;
37753;SDS011;23596;52.520;13.464;2022-10-31T15:54:53;97.63;;;43.35;;
37753;SDS011;23596;52.520;13.464;2022-10-31T15:57:21;102.85;;;45.40;;
37753;SDS011;23596;52.520;13.464;2022-10-31T15:59:48;111.53;;;43.97;;
37753;SDS011;23596;52.520;13.464;2022-10-31T16:02:17;97.25;;;44.28;;
37753;SDS011;23596;52.520;13.464;2022-10-31T16:04:53;104.93;;;47.00;;
37753;SDS011;23596;52.520;13.464;2022-10-31T16:07:23;99.50;;;45.53;;
37753;SDS011;23596;52.520;13.464;2022-10-31T16:12:22;102.07;;;48.10;;
37753;SDS011;23596;52.520;13.464;2022-10-31T16:14:50;104.45;;;47.97;;
37753;SDS011;23596;52.520;13.464;2022-10-31T16:17:18;113.22;;;48.70;;
37753;SDS011;23596;52.520;13.464;2022-10-31T16:20:02;105.35;;;50.17;;
37753;SDS011;23596;52.520;13.464;2022-10-31T16:22:30;109.88;;;47.95;;
37753;SDS011;23596;52.520;13.464;2022-10-31T16:25:04;107.10;;;47.78;;
37753;SDS011;23596;52.520;13.464;2022-10-31T16:27:35;115.00;;;48.50;;
37753;SDS011;23596;52.520;13.464;2022-10-31T16:30:25;111.68;;;48.15;;
37753;SDS011;23596;52.520;13.464;2022-10-31T16:32:56;107.53;;;47.75;;
37753;SDS011;23596;52.520;13.464;2022-10-31T16:35:33;102.70;;;48.35;;
37753;SDS011;23596;52.520;13.464;2022-10-31T16:38:00;103.93;;;48.47;;
37753;SDS011;23596;52.520;13.464;2022-10-31T16:40:26;107.97;;;48.73;;
37753;SDS011;23596;52.520;13.464;2022-10-31T16:42:51;109.87;;;48.73;;
37753;SDS011;23596;52.520;13.464;2022-10-31T16:45:18;120.63;;;48.50;;
37753;SDS011;23596;52.520;13.464;2022-10-31T16:47:47;129.23;;;49.70;;
37753;SDS011;23596;52.520;13.464;2022-10-31T16:50:23;113.57;;;49.83;;
37753;SDS011;23596;52.520;13.464;2022-10-31T16:52:50;124.90;;;52.13;;
37753;SDS011;23596;52.520;13.464;2022-10-31T16:55:17;126.67;;;49.90;;
37753;SDS011;23596;52.520;13.464;2022-10-31T16:57:54;118.47;;;52.28;;
37753;SDS011;23596;52.520;13.464;2022-10-31T17:00:22;118.50;;;55.08;;
37753;SDS011;23596;52.520;13.464;2022-10-31T17:02:50;103.30;;;53.10;;
37753;SDS011;23596;52.520;13.464;2022-10-31T17:05:17;123.32;;;54.03;;
37753;SDS011;23596;52.520;13.464;2022-10-31T17:07:46;119.95;;;53.08;;
37753;SDS011;23596;52.520;13.464;2022-10-31T17:10:12;128.90;;;54.63;;
37753;SDS011;23596;52.520;13.464;2022-10-31T17:15:06;133.98;;;57.50;;